Time;durP1;ratioP1;P1;durP2;ratioP2;P2;SDS_P1;SDS_P2;PMS_P1;PMS_P2;Temp;Humidity;BMP_temperature;BMP_pressure;BME280_temperature;BME280_humidity;BME280_pressure;Samples;Min_cycle;Max_cycle;Signal;HPM_P1;HPM_P2
2023/04/14 00:02:21;;;;;;;7.80;1.70;;;6.50;99.90;;;;;;5014061;28;20030;-79
2023/04/14 00:04:52;;;;;;;6.28;1.58;;;6.30;99.90;;;;;;5031139;28;20030;-79
2023/04/14 00:07:17;;;;;;;8.50;1.23;;;6.20;99.90;;;;;;4994261;28;20033;-79
2023/04/14 00:09:43;;;;;;;9.15;2.28;;;6.10;99.90;;;;;;5008216;28;20065;-79
2023/04/14 00:12:08;;;;;;;10.95;1.95;;;6.10;99.90;;;;;;5024884;28;20046;-79
2023/04/14 00:14:34;;;;;;;3.05;1.30;;;6.10;99.90;;;;;;5005020;28;20037;-79
2023/04/14 00:17:00;;;;;;;6.43;1.30;;;6.20;99.90;;;;;;5029725;28;20108;-79
2023/04/14 00:19:25;;;;;;;7.78;1.30;;;6.30;99.90;;;;;;5001786;28;20026;-79
2023/04/14 00:21:51;;;;;;;8.20;1.80;;;6.40;99.90;;;;;;5020945;28;20482;-79
2023/04/14 00:24:17;;;;;;;9.35;1.40;;;6.40;99.90;;;;;;5016251;28;20029;-79
2023/04/14 00:26:42;;;;;;;3.47;1.15;;;6.40;99.90;;;;;;5015123;28;20038;-78
2023/04/14 00:29:08;;;;;;;11.02;1.90;;;6.30;99.90;;;;;;5023140;28;20120;-79
2023/04/14 00:31:34;;;;;;;6.05;1.95;;;6.20;99.90;;;;;;5004494;28;20482;-79
2023/04/14 00:34:00;;;;;;;3.95;1.30;;;6.20;99.90;;;;;;5020503;28;20037;-79
2023/04/14 00:36:25;;;;;;;4.72;1.45;;;6.00;99.90;;;;;;5001596;28;20054;-79
2023/04/14 00:38:51;;;;;;;4.57;1.00;;;6.20;99.90;;;;;;5025066;28;20398;-80
2023/04/14 00:41:17;;;;;;;5.00;1.58;;;6.10;99.90;;;;;;5000341;28;20040;-79
2023/04/14 00:43:42;;;;;;;7.82;2.45;;;6.10;99.90;;;;;;5015901;28;20150;-79
2023/04/14 00:46:08;;;;;;;7.15;1.70;;;6.10;99.90;;;;;;4993047;28;20513;-79
2023/04/14 00:48:33;;;;;;;4.25;1.70;;;5.90;99.90;;;;;;5018383;28;20045;-78
2023/04/14 00:50:59;;;;;;;5.53;1.25;;;5.80;99.90;;;;;;5032659;28;20044;-79
2023/04/14 00:53:26;;;;;;;3.80;1.55;;;5.90;99.90;;;;;;5025022;28;20040;-79
2023/04/14 00:55:51;;;;;;;12.25;2.20;;;6.00;99.90;;;;;;5004531;28;20041;-79
2023/04/14 00:58:17;;;;;;;6.38;1.73;;;6.00;99.90;;;;;;5015365;28;20029;-78
2023/04/14 01:00:42;;;;;;;4.10;1.23;;;5.90;99.90;;;;;;5023558;28;20041;-80
2023/04/14 01:03:08;;;;;;;4.28;1.30;;;5.80;99.90;;;;;;4991739;28;20030;-79
2023/04/14 01:05:33;;;;;;;4.63;1.40;;;5.80;99.90;;;;;;5030740;28;20327;-79
2023/04/14 01:08:00;;;;;;;6.47;1.40;;;5.90;99.90;;;;;;5012820;28;20033;-79
2023/04/14 01:10:30;;;;;;;3.55;1.00;;;5.80;99.90;;;;;;5029652;28;20413;-79
2023/04/14 01:12:59;;;;;;;9.25;2.03;;;5.80;99.90;;;;;;5002007;28;20514;-79
2023/04/14 01:15:46;;;;;;;6.30;1.80;;;5.60;99.90;;;;;;5020415;28;20630;-79
2023/04/14 01:18:39;;;;;;;7.95;1.80;;;5.60;99.90;;;;;;5012783;28;20033;-80
2023/04/14 01:21:07;;;;;;;5.57;1.67;;;5.40;99.90;;;;;;5029300;28;20054;-79
2023/04/14 01:23:34;;;;;;;4.05;1.90;;;5.50;99.90;;;;;;5030212;28;20103;-79
2023/04/14 01:26:25;;;;;;;8.05;2.15;;;5.50;99.90;;;;;;5006091;28;20037;-80
2023/04/14 01:29:19;;;;;;;5.03;1.48;;;5.30;99.90;;;;;;5000769;28;20037;-79
2023/04/14 01:31:57;;;;;;;5.60;2.10;;;5.30;99.90;;;;;;5022749;28;20116;-80
2023/04/14 01:34:50;;;;;;;5.45;2.10;;;5.30;99.90;;;;;;5004874;28;20548;-80
2023/04/14 01:37:18;;;;;;;6.72;2.60;;;5.00;99.90;;;;;;5032065;28;20041;-79
2023/04/14 01:39:48;;;;;;;8.23;2.72;;;5.00;99.90;;;;;;5005512;28;20034;-79
2023/04/14 01:42:16;;;;;;;8.35;2.38;;;5.00;99.90;;;;;;4996260;28;20049;-80
2023/04/14 01:44:41;;;;;;;11.43;2.60;;;4.90;99.90;;;;;;5012646;28;20227;-80
2023/04/14 01:47:08;;;;;;;10.20;2.92;;;4.80;99.90;;;;;;5022347;28;20101;-79
2023/04/14 01:49:35;;;;;;;8.75;2.15;;;4.90;99.90;;;;;;5021756;28;20117;-80
2023/04/14 01:52:01;;;;;;;4.40;1.83;;;5.10;99.90;;;;;;5013684;28;20049;-81
2023/04/14 01:54:27;;;;;;;4.10;1.60;;;5.10;99.90;;;;;;5004343;28;20069;-81
2023/04/14 01:56:52;;;;;;;7.50;2.00;;;5.00;99.90;;;;;;4999740;28;20109;-79
2023/04/14 01:59:18;;;;;;;11.65;2.95;;;4.90;99.90;;;;;;5018434;28;20104;-81
2023/04/14 02:01:43;;;;;;;10.75;2.47;;;4.80;99.90;;;;;;5010635;28;20121;-80
2023/04/14 02:04:09;;;;;;;7.03;2.38;;;4.70;99.90;;;;;;5020722;28;20025;-81
2023/04/14 02:06:34;;;;;;;8.10;2.83;;;4.60;99.90;;;;;;5002460;28;20125;-79
2023/04/14 02:09:01;;;;;;;7.32;3.25;;;4.60;99.90;;;;;;5021050;28;20033;-80
2023/04/14 02:11:27;;;;;;;7.28;3.08;;;4.60;99.90;;;;;;5015157;28;20099;-80
2023/04/14 02:13:53;;;;;;;11.00;3.53;;;4.50;99.90;;;;;;5002001;28;20034;-80
2023/04/14 02:16:19;;;;;;;4.32;2.00;;;4.50;99.90;;;;;;5002283;28;20509;-80
2023/04/14 02:18:44;;;;;;;5.43;2.65;;;4.60;99.90;;;;;;5017209;28;20104;-80
2023/04/14 02:21:10;;;;;;;2.80;1.55;;;4.70;99.90;;;;;;5002199;28;20034;-80
2023/04/14 02:23:36;;;;;;;5.22;2.20;;;4.80;99.90;;;;;;5021063;28;20136;-80
2023/04/14 02:26:12;;;;;;;6.47;2.40;;;4.90;99.90;;;;;;4999664;28;20112;-79
2023/04/14 02:28:48;;;;;;;10.35;3.17;;;4.80;99.90;;;;;;5006788;28;20045;-80
2023/04/14 02:31:15;;;;;;;3.85;2.45;;;4.80;99.90;;;;;;5015781;28;20058;-80
2023/04/14 02:33:40;;;;;;;4.38;2.45;;;4.70;99.90;;;;;;5016120;28;20109;-81
2023/04/14 02:36:15;;;;;;;9.68;2.40;;;4.70;99.90;;;;;;5003197;28;20120;-80
2023/04/14 02:38:45;;;;;;;4.87;2.33;;;4.70;99.90;;;;;;5016599;28;20041;-78
2023/04/14 02:41:15;;;;;;;5.93;2.67;;;4.70;99.90;;;;;;5014699;28;20053;-79
2023/04/14 02:43:43;;;;;;;6.10;2.70;;;4.60;99.90;;;;;;5014886;28;20112;-78
2023/04/14 02:46:08;;;;;;;5.53;2.30;;;4.60;99.90;;;;;;5029331;28;20564;-78
2023/04/14 02:48:34;;;;;;;12.60;5.45;;;4.60;99.90;;;;;;5016445;28;20041;-79
2023/04/14 02:51:00;;;;;;;10.35;3.38;;;4.50;99.90;;;;;;5018576;28;20495;-78
2023/04/14 02:53:25;;;;;;;8.63;2.83;;;4.40;99.90;;;;;;5006112;28;20040;-78
2023/04/14 02:55:51;;;;;;;10.77;3.13;;;4.60;99.90;;;;;;5016793;28;20120;-77
2023/04/14 02:58:16;;;;;;;9.75;3.20;;;4.50;99.90;;;;;;5014038;28;20026;-78
2023/04/14 03:00:42;;;;;;;7.47;2.35;;;4.50;99.90;;;;;;5003493;28;20034;-77
2023/04/14 03:03:09;;;;;;;7.25;2.35;;;4.50;99.90;;;;;;5014539;28;20108;-78
2023/04/14 03:05:34;;;;;;;7.30;2.33;;;4.40;99.90;;;;;;5021496;28;20026;-77
2023/04/14 03:08:00;;;;;;;6.85;1.40;;;4.40;99.90;;;;;;5004644;28;20570;-77
2023/04/14 03:10:25;;;;;;;8.65;1.77;;;4.60;99.90;;;;;;5006189;28;20038;-77
2023/04/14 03:12:51;;;;;;;7.70;2.40;;;4.60;99.90;;;;;;5010573;28;20479;-78
2023/04/14 03:15:17;;;;;;;7.47;2.33;;;4.70;99.90;;;;;;5001205;28;20021;-77
2023/04/14 03:17:43;;;;;;;8.43;2.70;;;4.50;99.90;;;;;;4999861;28;20030;-77
2023/04/14 03:20:10;;;;;;;7.00;2.28;;;4.30;99.90;;;;;;5010879;28;20037;-78
2023/04/14 03:22:39;;;;;;;4.07;1.92;;;4.40;99.90;;;;;;4999085;28;20504;-77
2023/04/14 03:25:05;;;;;;;5.32;2.80;;;4.40;99.90;;;;;;5018065;28;20038;-77
2023/04/14 03:27:31;;;;;;;4.68;1.60;;;4.60;99.90;;;;;;5000583;28;20052;-77
2023/04/14 03:30:00;;;;;;;4.65;1.55;;;4.70;99.90;;;;;;5012711;28;20033;-77
2023/04/14 03:32:28;;;;;;;5.75;1.80;;;4.90;99.90;;;;;;5007342;28;20041;-77
2023/04/14 03:34:55;;;;;;;5.22;1.83;;;4.80;99.90;;;;;;4996767;28;20036;-77
2023/04/14 03:37:23;;;;;;;5.38;2.15;;;4.60;99.90;;;;;;5016549;28;20120;-78
2023/04/14 03:39:50;;;;;;;4.20;1.63;;;4.40;99.90;;;;;;5024541;28;20494;-79
2023/04/14 03:42:17;;;;;;;6.43;1.85;;;4.30;99.90;;;;;;5001474;28;20029;-77
2023/04/14 03:44:48;;;;;;;5.45;1.75;;;4.30;99.90;;;;;;5002693;28;20037;-77
2023/04/14 03:47:14;;;;;;;8.45;2.08;;;4.40;99.90;;;;;;5004591;28;20037;-77
2023/04/14 03:49:42;;;;;;;3.72;1.60;;;4.30;99.90;;;;;;4995467;28;20030;-79
2023/04/14 03:52:09;;;;;;;5.13;2.05;;;4.10;99.90;;;;;;5013309;28;20041;-79
2023/04/14 03:54:35;;;;;;;11.75;2.42;;;3.90;99.90;;;;;;5007101;28;20063;-78
2023/04/14 03:57:03;;;;;;;9.02;2.60;;;3.90;99.90;;;;;;4998022;28;20035;-79
2023/04/14 03:59:29;;;;;;;3.72;1.95;;;3.80;99.90;;;;;;5012743;28;20026;-78
2023/04/14 04:01:55;;;;;;;8.52;2.95;;;3.90;99.90;;;;;;5014054;28;20044;-78
2023/04/14 04:04:21;;;;;;;7.97;2.22;;;3.80;99.90;;;;;;5018689;28;20496;-79
2023/04/14 04:06:48;;;;;;;12.25;2.70;;;3.80;99.90;;;;;;5010956;28;20505;-78
2023/04/14 04:09:14;;;;;;;5.65;2.53;;;3.90;99.90;;;;;;5013080;28;20172;-78
2023/04/14 04:11:43;;;;;;;10.32;2.75;;;3.80;99.90;;;;;;5014484;28;20777;-78
2023/04/14 04:14:09;;;;;;;5.68;2.53;;;3.60;99.90;;;;;;4999831;28;20044;-80
2023/04/14 04:16:35;;;;;;;10.98;3.15;;;3.60;99.90;;;;;;5020829;28;20038;-79
2023/04/14 04:19:03;;;;;;;5.85;2.80;;;3.40;99.90;;;;;;4999754;28;20057;-78
2023/04/14 04:21:31;;;;;;;12.75;3.50;;;3.20;99.90;;;;;;5023446;28;20429;-79
2023/04/14 04:23:56;;;;;;;9.77;3.53;;;2.90;99.90;;;;;;5012630;28;20846;-79
2023/04/14 04:26:24;;;;;;;8.40;3.88;;;2.80;99.90;;;;;;5015327;28;20088;-78
2023/04/14 04:28:49;;;;;;;10.20;4.72;;;2.90;99.90;;;;;;5012904;28;20034;-78
2023/04/14 04:31:15;;;;;;;12.25;4.15;;;3.00;99.90;;;;;;5032148;28;20084;-79
2023/04/14 04:33:40;;;;;;;11.93;3.75;;;3.00;99.90;;;;;;5022952;28;20099;-79
2023/04/14 04:36:06;;;;;;;16.55;5.13;;;2.90;99.90;;;;;;5024177;28;20030;-78
2023/04/14 04:38:32;;;;;;;10.15;3.55;;;3.10;99.90;;;;;;5006221;28;20029;-79
2023/04/14 04:40:57;;;;;;;7.00;2.35;;;3.10;99.90;;;;;;5005457;28;20048;-78
2023/04/14 04:43:23;;;;;;;7.68;3.05;;;3.30;99.90;;;;;;4998189;28;20026;-78
2023/04/14 04:46:01;;;;;;;5.25;2.30;;;3.20;99.90;;;;;;5022592;28;20079;-79
2023/04/14 04:48:26;;;;;;;8.32;3.40;;;3.10;99.90;;;;;;5010709;28;20633;-79
2023/04/14 04:50:52;;;;;;;12.20;2.45;;;3.30;99.90;;;;;;5015632;28;20113;-80
2023/04/14 04:53:17;;;;;;;6.25;2.67;;;3.20;99.90;;;;;;5000413;28;20032;-77
2023/04/14 04:55:43;;;;;;;4.05;2.00;;;3.40;99.90;;;;;;5000771;28;20022;-78
2023/04/14 04:58:08;;;;;;;7.80;2.10;;;3.40;99.90;;;;;;5003462;28;20096;-78
2023/04/14 05:00:34;;;;;;;4.70;2.25;;;3.40;99.90;;;;;;5015778;28;20040;-78
2023/04/14 05:03:00;;;;;;;6.50;1.88;;;3.20;99.90;;;;;;5000330;28;20103;-78
2023/04/14 05:05:26;;;;;;;5.13;2.13;;;3.20;99.90;;;;;;5003173;28;20497;-78
2023/04/14 05:07:51;;;;;;;6.78;2.67;;;3.30;99.90;;;;;;5006934;28;20478;-78
2023/04/14 05:10:17;;;;;;;6.88;2.30;;;3.20;99.90;;;;;;5010301;28;20034;-77
2023/04/14 05:12:42;;;;;;;9.13;2.63;;;3.20;99.90;;;;;;4999903;28;20033;-78
2023/04/14 05:15:08;;;;;;;5.47;2.50;;;3.30;99.90;;;;;;5007440;28;20021;-78
2023/04/14 05:17:34;;;;;;;7.07;2.55;;;3.20;99.90;;;;;;4986765;28;20034;-79
2023/04/14 05:20:01;;;;;;;10.93;3.85;;;3.30;99.90;;;;;;5004850;28;20034;-78
2023/04/14 05:22:27;;;;;;;5.55;2.58;;;3.30;99.90;;;;;;5003791;28;20040;-78
2023/04/14 05:24:52;;;;;;;10.13;4.18;;;3.20;99.90;;;;;;5009711;28;20451;-78
2023/04/14 05:27:18;;;;;;;14.85;5.03;;;3.20;99.90;;;;;;5010126;28;20684;-77
2023/04/14 05:29:43;;;;;;;9.23;4.22;;;3.10;99.90;;;;;;4999930;28;20520;-78
2023/04/14 05:32:10;;;;;;;11.75;4.82;;;3.10;99.90;;;;;;5012341;28;20040;-79
2023/04/14 05:34:35;;;;;;;11.05;4.03;;;3.10;99.90;;;;;;5029867;28;20025;-78
2023/04/14 05:37:01;;;;;;;9.38;4.60;;;3.10;99.90;;;;;;5026916;28;20466;-77
2023/04/14 05:39:27;;;;;;;11.73;4.70;;;3.10;99.90;;;;;;5000732;28;20030;-77
2023/04/14 05:41:53;;;;;;;11.50;5.28;;;3.30;99.90;;;;;;5010284;28;20080;-77
2023/04/14 05:44:18;;;;;;;13.68;5.38;;;3.40;99.90;;;;;;5001269;28;20029;-78
2023/04/14 05:46:44;;;;;;;14.43;5.78;;;3.60;99.90;;;;;;4999379;28;20030;-77
2023/04/14 05:49:09;;;;;;;10.57;4.82;;;3.70;99.90;;;;;;5031907;28;20069;-78
2023/04/14 05:51:35;;;;;;;15.73;5.32;;;3.80;99.90;;;;;;5022903;28;20022;-78
2023/04/14 05:54:00;;;;;;;13.65;5.68;;;4.00;99.90;;;;;;4994814;28;20470;-77
2023/04/14 05:56:26;;;;;;;18.63;6.35;;;4.10;99.90;;;;;;5015049;28;20393;-77
2023/04/14 05:58:54;;;;;;;9.98;5.63;;;4.10;99.90;;;;;;5002161;28;20038;-78
2023/04/14 06:01:19;;;;;;;11.18;5.85;;;4.30;99.90;;;;;;4999003;28;20061;-77
2023/04/14 06:03:45;;;;;;;12.75;5.18;;;4.30;99.90;;;;;;4999317;28;20498;-77
2023/04/14 06:06:10;;;;;;;15.57;5.80;;;4.40;99.90;;;;;;5008652;28;20030;-78
2023/04/14 06:08:36;;;;;;;14.40;6.68;;;4.50;99.90;;;;;;4999613;28;20048;-78
2023/04/14 06:11:02;;;;;;;13.88;7.22;;;4.60;99.90;;;;;;5011561;28;20456;-78
2023/04/14 06:13:27;;;;;;;21.75;7.88;;;4.70;99.90;;;;;;5013426;28;20253;-78
2023/04/14 06:15:54;;;;;;;15.63;6.25;;;4.90;99.90;;;;;;5016991;28;20036;-78
2023/04/14 06:18:21;;;;;;;15.95;6.50;;;5.10;99.90;;;;;;5025376;28;20028;-76
2023/04/14 06:20:47;;;;;;;9.73;3.75;;;5.20;99.90;;;;;;5018100;28;20025;-77
2023/04/14 06:23:12;;;;;;;12.65;6.07;;;5.40;99.90;;;;;;5013166;28;20084;-78
2023/04/14 06:25:38;;;;;;;8.82;3.70;;;5.50;99.90;;;;;;4998003;28;20057;-77
2023/04/14 06:28:04;;;;;;;14.38;5.40;;;5.60;99.90;;;;;;5010680;28;20025;-77
2023/04/14 06:30:31;;;;;;;12.75;5.35;;;5.70;99.90;;;;;;5019100;28;20045;-77
2023/04/14 06:32:57;;;;;;;10.02;5.20;;;5.80;99.90;;;;;;5017561;28;20048;-76
2023/04/14 06:35:23;;;;;;;10.40;4.55;;;6.00;99.90;;;;;;5013448;28;20618;-76
2023/04/14 06:37:49;;;;;;;13.77;4.05;;;6.20;99.90;;;;;;5022245;28;20022;-76
2023/04/14 06:40:15;;;;;;;14.02;5.68;;;6.30;99.90;;;;;;5012659;28;20688;-77
2023/04/14 06:42:40;;;;;;;14.95;4.93;;;6.30;99.90;;;;;;5002076;28;20121;-77
2023/04/14 06:45:06;;;;;;;9.13;3.33;;;6.60;99.90;;;;;;5015249;28;20018;-77
2023/04/14 06:47:32;;;;;;;8.73;3.67;;;6.70;99.90;;;;;;5001845;28;20367;-77
2023/04/14 06:49:57;;;;;;;9.13;3.50;;;6.90;99.90;;;;;;5000592;28;20095;-77
2023/04/14 06:52:23;;;;;;;5.38;2.67;;;7.00;99.90;;;;;;5018740;28;20025;-77
2023/04/14 06:54:49;;;;;;;10.93;3.72;;;7.10;99.90;;;;;;5008481;28;20259;-77
2023/04/14 06:57:14;;;;;;;6.47;2.67;;;7.30;99.90;;;;;;5004868;28;20079;-77
2023/04/14 06:59:40;;;;;;;5.63;2.65;;;7.40;99.90;;;;;;5008642;28;20497;-78
2023/04/14 07:02:06;;;;;;;7.57;3.03;;;7.50;99.90;;;;;;5019406;28;20049;-78
2023/04/14 07:04:31;;;;;;;11.70;4.78;;;7.60;99.90;;;;;;5029482;28;20455;-77
2023/04/14 07:07:00;;;;;;;15.15;4.90;;;7.70;99.90;;;;;;5002176;28;20041;-76
2023/04/14 07:09:27;;;;;;;14.27;5.03;;;7.70;99.90;;;;;;5014381;28;20398;-76
2023/04/14 07:11:52;;;;;;;7.55;3.60;;;7.80;99.90;;;;;;5002725;28;20139;-76
2023/04/14 07:14:18;;;;;;;11.68;4.13;;;7.80;99.90;;;;;;5000796;28;20037;-76
2023/04/14 07:16:43;;;;;;;10.05;3.58;;;8.00;99.90;;;;;;5029225;28;20042;-76
2023/04/14 07:19:09;;;;;;;11.05;3.28;;;8.20;99.90;;;;;;5000509;28;20033;-76
2023/04/14 07:21:36;;;;;;;12.15;3.35;;;8.20;99.90;;;;;;5010606;28;20038;-76
2023/04/14 07:24:03;;;;;;;8.82;3.45;;;8.20;99.90;;;;;;5012502;28;20482;-77
2023/04/14 07:26:28;;;;;;;12.95;3.22;;;8.30;99.90;;;;;;4995786;28;20046;-77
2023/04/14 07:28:54;;;;;;;6.30;1.67;;;8.50;99.90;;;;;;5014889;28;20446;-76
2023/04/14 07:31:20;;;;;;;5.50;1.90;;;8.80;99.90;;;;;;5021137;28;20030;-77
2023/04/14 07:33:45;;;;;;;6.60;2.10;;;9.10;99.90;;;;;;5019465;28;20352;-76
2023/04/14 07:36:11;;;;;;;12.93;2.88;;;9.10;99.90;;;;;;5001209;28;20549;-75
2023/04/14 07:38:37;;;;;;;8.77;2.53;;;9.20;99.90;;;;;;5005018;28;20040;-76
2023/04/14 07:41:03;;;;;;;4.53;2.05;;;9.60;99.90;;;;;;5029146;28;20057;-77
2023/04/14 07:43:34;;;;;;;3.92;1.58;;;9.80;99.90;;;;;;5028411;28;20418;-78
2023/04/14 07:46:03;;;;;;;8.52;2.95;;;10.20;99.90;;;;;;5016739;28;20037;-77
2023/04/14 07:48:30;;;;;;;7.32;2.45;;;10.40;99.90;;;;;;5019509;28;20038;-77
2023/04/14 07:50:56;;;;;;;8.02;2.40;;;10.20;99.90;;;;;;5019080;28;20026;-76
2023/04/14 07:53:22;;;;;;;11.52;2.20;;;10.00;99.90;;;;;;5030332;28;20030;-76
2023/04/14 07:55:48;;;;;;;8.88;2.40;;;10.20;99.90;;;;;;5020783;28;20169;-76
2023/04/14 07:58:14;;;;;;;4.82;1.80;;;10.50;99.90;;;;;;5015307;28;20025;-77
2023/04/14 08:00:39;;;;;;;2.83;1.45;;;10.90;99.90;;;;;;5003304;28;20033;-76
2023/04/14 08:03:05;;;;;;;7.55;2.40;;;10.90;99.90;;;;;;4999329;28;20030;-77
2023/04/14 08:05:31;;;;;;;6.30;1.95;;;10.90;99.90;;;;;;4994889;28;20125;-80
2023/04/14 08:07:56;;;;;;;4.55;1.92;;;11.30;99.90;;;;;;5004875;28;20119;-79
2023/04/14 08:10:22;;;;;;;11.02;1.92;;;11.50;99.90;;;;;;5001652;28;20816;-81
2023/04/14 08:12:47;;;;;;;9.40;2.10;;;12.00;99.90;;;;;;4999264;28;20517;-80
2023/04/14 08:15:13;;;;;;;4.10;1.55;;;12.20;99.90;;;;;;5030958;28;20457;-79
2023/04/14 08:17:41;;;;;;;8.30;2.05;;;12.50;99.90;;;;;;5005571;28;20036;-79
2023/04/14 08:20:07;;;;;;;4.55;1.70;;;12.60;99.90;;;;;;5006769;28;20037;-80
2023/04/14 08:22:34;;;;;;;4.07;1.67;;;12.30;99.90;;;;;;5013459;28;20026;-80
2023/04/14 08:24:59;;;;;;;8.15;2.25;;;12.50;99.90;;;;;;5000704;28;20080;-80
2023/04/14 08:27:25;;;;;;;7.57;1.60;;;12.60;99.90;;;;;;5023653;28;20077;-80
2023/04/14 08:29:50;;;;;;;6.28;1.95;;;12.10;99.90;;;;;;5003180;28;20045;-79
2023/04/14 08:32:16;;;;;;;8.25;1.85;;;12.30;99.90;;;;;;5019918;28;20116;-79
2023/04/14 08:34:42;;;;;;;4.03;1.25;;;13.10;99.90;;;;;;5006253;28;20486;-79
2023/04/14 08:37:07;;;;;;;9.18;2.25;;;13.20;99.90;;;;;;5000843;28;20501;-79
2023/04/14 08:39:33;;;;;;;3.53;1.48;;;13.50;99.90;;;;;;5012299;28;20124;-79
2023/04/14 08:41:58;;;;;;;7.15;2.40;;;13.50;99.90;;;;;;5006549;28;20033;-78
2023/04/14 08:44:24;;;;;;;4.30;1.60;;;13.20;99.90;;;;;;5003034;28;20504;-79
2023/04/14 08:46:51;;;;;;;5.30;1.45;;;13.20;99.90;;;;;;5028004;28;20037;-78
2023/04/14 08:49:29;;;;;;;6.45;1.73;;;14.00;99.90;;;;;;5028418;28;20253;-78
2023/04/14 08:51:55;;;;;;;5.43;1.63;;;14.50;99.90;;;;;;5023502;28;20029;-78
2023/04/14 08:54:20;;;;;;;5.28;1.58;;;14.80;99.90;;;;;;4999921;28;20642;-78
2023/04/14 08:56:46;;;;;;;8.48;1.30;;;15.10;99.90;;;;;;5014979;28;20041;-78
2023/04/14 08:59:12;;;;;;;10.07;1.73;;;15.30;99.90;;;;;;5032177;28;20056;-78
2023/04/14 09:01:37;;;;;;;8.32;1.38;;;15.40;99.90;;;;;;4999131;28;20034;-78
2023/04/14 09:04:03;;;;;;;7.72;1.40;;;15.20;99.90;;;;;;4997449;28;20116;-78
2023/04/14 09:06:29;;;;;;;8.35;1.38;;;15.60;99.90;;;;;;4998640;28;20034;-78
2023/04/14 09:08:55;;;;;;;6.40;1.52;;;15.30;99.90;;;;;;5010272;28;20030;-78
2023/04/14 09:11:21;;;;;;;8.40;3.60;;;15.50;99.90;;;;;;5031055;28;20406;-78
2023/04/14 09:13:48;;;;;;;7.50;1.40;;;15.80;99.90;;;;;;5022982;28;20061;-78
2023/04/14 09:16:14;;;;;;;3.97;1.60;;;15.80;99.90;;;;;;4998145;28;20405;-78
2023/04/14 09:18:40;;;;;;;6.85;1.40;;;15.40;99.90;;;;;;5029928;28;20037;-78
2023/04/14 09:21:05;;;;;;;5.20;1.00;;;16.00;99.90;;;;;;5014009;28;20037;-78
2023/04/14 09:23:32;;;;;;;4.15;1.08;;;16.00;99.90;;;;;;5012331;28;20025;-78
2023/04/14 09:25:57;;;;;;;4.28;1.33;;;16.20;99.90;;;;;;4997970;28;20029;-78
2023/04/14 09:28:23;;;;;;;2.95;0.70;;;16.60;99.90;;;;;;4998414;28;20129;-78
2023/04/14 09:30:48;;;;;;;5.72;1.60;;;16.30;99.90;;;;;;5026678;28;20041;-78
2023/04/14 09:33:21;;;;;;;5.32;1.38;;;17.00;99.90;;;;;;4998621;28;20034;-78
2023/04/14 09:35:50;;;;;;;4.43;1.08;;;17.60;99.90;;;;;;4997201;28;20026;-79
2023/04/14 09:38:36;;;;;;;4.75;1.27;;;17.30;99.90;;;;;;5010505;28;20494;-78
2023/04/14 09:41:06;;;;;;;4.05;1.10;;;17.50;98.70;;;;;;5012193;28;20033;-78
2023/04/14 09:43:31;;;;;;;9.48;1.70;;;17.70;98.80;;;;;;4998259;28;20030;-78
2023/04/14 09:46:03;;;;;;;6.53;1.73;;;17.80;97.10;;;;;;5020812;28;20371;-78
2023/04/14 09:48:28;;;;;;;4.28;1.15;;;17.50;99.90;;;;;;5010767;28;20125;-78
2023/04/14 09:51:08;;;;;;;4.22;1.13;;;17.50;99.90;;;;;;5028751;28;20631;-78
2023/04/14 09:53:35;;;;;;;7.20;1.65;;;17.60;98.70;;;;;;5014530;28;20112;-78
2023/04/14 09:56:03;;;;;;;7.65;1.80;;;18.10;99.00;;;;;;5023724;28;20026;-79
2023/04/14 09:58:33;;;;;;;6.55;1.55;;;18.20;99.60;;;;;;5029212;28;20037;-79
2023/04/14 10:00:58;;;;;;;6.05;1.45;;;18.00;99.90;;;;;;4997496;28;20502;-78
2023/04/14 10:03:33;;;;;;;4.43;1.50;;;17.60;99.90;;;;;;4997075;28;20033;-78
2023/04/14 10:06:00;;;;;;;1.40;0.73;;;18.00;99.90;;;;;;5019490;28;20563;-78
2023/04/14 10:08:36;;;;;;;3.90;0.98;;;18.30;98.80;;;;;;5019130;28;20048;-78
2023/04/14 10:11:22;;;;;;;3.63;1.65;;;18.80;96.90;;;;;;5001623;28;20497;-79
2023/04/14 10:13:58;;;;;;;8.20;1.52;;;18.80;99.90;;;;;;5021197;28;20026;-78
2023/04/14 10:16:23;;;;;;;;;;;18.40;96.30;;;;;;4981074;28;20133;-78
2023/04/14 10:18:50;;;;;;;6.40;1.30;;;19.30;96.90;;;;;;5014307;28;20400;-78
2023/04/14 10:21:16;;;;;;;6.22;1.30;;;19.80;93.30;;;;;;5024230;28;20040;-78
2023/04/14 10:23:42;;;;;;;8.00;1.63;;;19.50;93.50;;;;;;5004097;28;20428;-79
2023/04/14 10:26:08;;;;;;;3.40;1.10;;;19.30;94.60;;;;;;5016589;28;20030;-78
2023/04/14 10:28:35;;;;;;;3.72;1.10;;;19.30;93.70;;;;;;5000458;28;20121;-77
2023/04/14 10:31:01;;;;;;;7.60;1.63;;;19.50;93.80;;;;;;5013261;28;20124;-78
2023/04/14 10:33:27;;;;;;;5.05;1.08;;;19.40;98.20;;;;;;5007759;28;20080;-78
2023/04/14 10:35:57;;;;;;;5.18;1.15;;;19.50;93.50;;;;;;5032341;28;20062;-78
2023/04/14 10:38:36;;;;;;;4.25;1.27;;;19.30;94.80;;;;;;5014683;28;20033;-78
2023/04/14 10:41:01;;;;;;;7.38;1.92;;;19.10;94.30;;;;;;5003972;28;20066;-78
2023/04/14 10:43:27;;;;;;;8.73;2.80;;;19.30;99.00;;;;;;5023698;28;20041;-78
2023/04/14 10:45:56;;;;;;;8.32;1.55;;;18.70;99.90;;;;;;5033616;28;20188;-78
2023/04/14 10:48:31;;;;;;;5.55;1.10;;;18.60;99.90;;;;;;5006065;28;20041;-78
2023/04/14 10:51:01;;;;;;;4.10;1.10;;;18.50;99.90;;;;;;5002486;28;20034;-78
2023/04/14 10:53:34;;;;;;;5.80;1.05;;;19.40;96.70;;;;;;5012526;28;20520;-78
2023/04/14 10:56:01;;;;;;;4.38;1.08;;;19.80;95.00;;;;;;5021358;28;20037;-77
2023/04/14 10:58:28;;;;;;;7.03;1.10;;;19.80;93.60;;;;;;5007506;28;20631;-77
2023/04/14 11:00:56;;;;;;;6.35;1.27;;;19.60;94.10;;;;;;5005245;28;20033;-78
2023/04/14 11:03:22;;;;;;;3.88;1.15;;;19.30;94.70;;;;;;5015259;28;20026;-78
2023/04/14 11:05:48;;;;;;;5.63;0.90;;;19.50;94.50;;;;;;5000882;28;20538;-78
2023/04/14 11:08:13;;;;;;;3.67;1.20;;;19.80;90.80;;;;;;5005075;28;20032;-77
2023/04/14 11:10:40;;;;;;;4.18;1.10;;;19.60;93.80;;;;;;5028364;28;20076;-77
2023/04/14 11:13:09;;;;;;;7.53;1.45;;;19.20;98.70;;;;;;5005357;28;20032;-77
2023/04/14 11:15:50;;;;;;;7.35;0.95;;;18.80;97.80;;;;;;5002618;28;20084;-77
2023/04/14 11:18:27;;;;;;;6.38;1.23;;;19.30;93.20;;;;;;5021626;28;20543;-77
2023/04/14 11:20:53;;;;;;;4.07;1.40;;;19.00;99.90;;;;;;5015718;28;20570;-78
2023/04/14 11:23:25;;;;;;;6.25;1.58;;;18.80;99.90;;;;;;5016976;28;20057;-78
2023/04/14 11:25:50;;;;;;;7.80;1.40;;;18.80;99.90;;;;;;5017310;28;20116;-78
2023/04/14 11:28:26;;;;;;;6.10;1.73;;;19.00;99.40;;;;;;5016586;28;20485;-78
2023/04/14 11:30:52;;;;;;;5.05;1.08;;;19.10;98.70;;;;;;5013390;28;20689;-78
2023/04/14 11:33:18;;;;;;;4.00;1.10;;;20.10;94.10;;;;;;5011970;28;20033;-78
2023/04/14 11:35:43;;;;;;;2.30;1.00;;;20.40;90.10;;;;;;5031356;28;20030;-77
2023/04/14 11:38:10;;;;;;;3.72;1.08;;;20.30;96.60;;;;;;4997443;28;20034;-77
2023/04/14 11:40:35;;;;;;;4.45;1.20;;;20.30;90.10;;;;;;4998937;28;20093;-77
2023/04/14 11:43:01;;;;;;;6.00;1.35;;;20.20;95.70;;;;;;5010419;28;20054;-77
2023/04/14 11:45:27;;;;;;;5.82;1.60;;;20.40;95.20;;;;;;5000744;28;20033;-76
2023/04/14 11:48:00;;;;;;;3.42;0.93;;;20.30;99.00;;;;;;5013670;28;20040;-76
2023/04/14 11:50:27;;;;;;;3.17;0.90;;;20.40;98.40;;;;;;5011283;28;20512;-76
2023/04/14 11:53:02;;;;;;;7.85;1.85;;;20.80;91.20;;;;;;5031116;28;20555;-76
2023/04/14 11:55:28;;;;;;;3.85;1.13;;;20.70;95.60;;;;;;5029190;28;20098;-78
2023/04/14 11:57:54;;;;;;;6.32;2.08;;;21.00;90.00;;;;;;5029786;28;20116;-76
2023/04/14 12:00:20;;;;;;;4.00;1.10;;;21.20;87.60;;;;;;4996584;28;20041;-77
2023/04/14 12:02:45;;;;;;;5.93;2.00;;;20.90;95.30;;;;;;5004506;28;20033;-76
2023/04/14 12:05:12;;;;;;;4.07;1.30;;;20.70;98.00;;;;;;4999446;28;20476;-76
2023/04/14 12:07:40;;;;;;;6.15;1.35;;;20.80;91.40;;;;;;5014136;28;20067;-76
2023/04/14 12:10:07;;;;;;;3.65;1.13;;;21.00;95.20;;;;;;5011259;28;20121;-76
2023/04/14 12:12:32;;;;;;;4.97;1.00;;;21.10;95.50;;;;;;5000600;28;20559;-77
2023/04/14 12:14:58;;;;;;;2.20;0.70;;;21.10;93.00;;;;;;5013918;28;20029;-77
2023/04/14 12:17:24;;;;;;;4.07;0.95;;;21.50;94.70;;;;;;4999830;28;20034;-77
2023/04/14 12:19:49;;;;;;;5.18;1.17;;;21.40;96.80;;;;;;5006716;28;20029;-78
2023/04/14 12:22:25;;;;;;;4.40;1.67;;;21.50;93.80;;;;;;5027107;28;20025;-78
2023/04/14 12:24:51;;;;;;;4.18;0.80;;;21.50;93.90;;;;;;5020213;28;20030;-78
2023/04/14 12:27:21;;;;;;;4.00;0.70;;;21.90;94.30;;;;;;5030997;28;20037;-78
2023/04/14 12:29:48;;;;;;;2.65;0.68;;;22.00;91.50;;;;;;5019264;28;20083;-78
2023/04/14 12:32:14;;;;;;;3.47;0.88;;;22.60;89.30;;;;;;5014496;28;20521;-78
2023/04/14 12:34:39;;;;;;;2.60;0.77;;;22.40;91.40;;;;;;4997870;28;20029;-78
2023/04/14 12:37:08;;;;;;;6.15;1.50;;;22.80;81.10;;;;;;5004548;28;20482;-78
2023/04/14 12:39:50;;;;;;;2.47;0.77;;;22.90;82.80;;;;;;4999617;28;20037;-78
2023/04/14 12:42:15;;;;;;;1.65;0.80;;;22.60;80.90;;;;;;5013295;28;20033;-78
2023/04/14 12:44:41;;;;;;;4.13;1.02;;;22.70;78.70;;;;;;5010948;28;20390;-78
2023/04/14 12:47:07;;;;;;;2.35;0.77;;;22.80;73.20;;;;;;4999229;28;20061;-78
2023/04/14 12:49:36;;;;;;;3.45;1.17;;;23.00;73.30;;;;;;5030030;28;20363;-78
2023/04/14 12:52:03;;;;;;;7.30;1.00;;;23.10;78.30;;;;;;5011700;28;20398;-79